sensor_id;sensor_type;location;lat;lon;timestamp;P1;durP1;ratioP1;P2;durP2;ratioP2
5117;SDS011;2578;51.622;7.046;2023-01-16T00:01:45;3.50;;;2.87;;
5117;SDS011;2578;51.622;7.046;2023-01-16T00:04:13;3.33;;;2.80;;
5117;SDS011;2578;51.622;7.046;2023-01-16T00:06:39;3.83;;;3.43;;
5117;SDS011;2578;51.622;7.046;2023-01-16T00:09:05;3.30;;;2.70;;
5117;SDS011;2578;51.622;7.046;2023-01-16T00:11:31;3.20;;;2.50;;
5117;SDS011;2578;51.622;7.046;2023-01-16T00:13:57;3.10;;;2.30;;
5117;SDS011;2578;51.622;7.046;2023-01-16T00:16:24;3.60;;;2.60;;
5117;SDS011;2578;51.622;7.046;2023-01-16T00:18:50;3.10;;;2.30;;
5117;SDS011;2578;51.622;7.046;2023-01-16T00:21:16;3.07;;;2.23;;
5117;SDS011;2578;51.622;7.046;2023-01-16T00:23:42;3.17;;;2.30;;
5117;SDS011;2578;51.622;7.046;2023-01-16T00:26:08;3.20;;;2.30;;
5117;SDS011;2578;51.622;7.046;2023-01-16T00:28:37;3.20;;;2.30;;
5117;SDS011;2578;51.622;7.046;2023-01-16T00:31:04;4.33;;;3.83;;
5117;SDS011;2578;51.622;7.046;2023-01-16T00:33:31;3.27;;;2.50;;
5117;SDS011;2578;51.622;7.046;2023-01-16T00:35:57;3.13;;;2.20;;
5117;SDS011;2578;51.622;7.046;2023-01-16T00:38:22;3.20;;;2.37;;
5117;SDS011;2578;51.622;7.046;2023-01-16T00:40:48;5.30;;;2.90;;
5117;SDS011;2578;51.622;7.046;2023-01-16T00:43:14;3.30;;;2.53;;
5117;SDS011;2578;51.622;7.046;2023-01-16T00:45:39;3.20;;;2.60;;
5117;SDS011;2578;51.622;7.046;2023-01-16T00:48:05;3.73;;;3.30;;
5117;SDS011;2578;51.622;7.046;2023-01-16T00:50:31;10.40;;;3.50;;
5117;SDS011;2578;51.622;7.046;2023-01-16T00:52:57;3.80;;;3.40;;
5117;SDS011;2578;51.622;7.046;2023-01-16T00:55:23;3.73;;;3.33;;
5117;SDS011;2578;51.622;7.046;2023-01-16T00:57:49;4.00;;;3.60;;
5117;SDS011;2578;51.622;7.046;2023-01-16T01:00:15;4.20;;;3.80;;
5117;SDS011;2578;51.622;7.046;2023-01-16T01:02:42;4.30;;;3.90;;
5117;SDS011;2578;51.622;7.046;2023-01-16T01:05:08;4.30;;;3.90;;
5117;SDS011;2578;51.622;7.046;2023-01-16T01:07:34;4.70;;;4.30;;
5117;SDS011;2578;51.622;7.046;2023-01-16T01:09:59;10.30;;;4.50;;
5117;SDS011;2578;51.622;7.046;2023-01-16T01:12:25;4.30;;;3.90;;
5117;SDS011;2578;51.622;7.046;2023-01-16T01:14:51;5.47;;;4.97;;
5117;SDS011;2578;51.622;7.046;2023-01-16T01:17:16;5.07;;;4.67;;
5117;SDS011;2578;51.622;7.046;2023-01-16T01:19:42;5.03;;;4.63;;
5117;SDS011;2578;51.622;7.046;2023-01-16T01:22:07;4.90;;;4.50;;
5117;SDS011;2578;51.622;7.046;2023-01-16T01:24:33;7.10;;;5.00;;
5117;SDS011;2578;51.622;7.046;2023-01-16T01:26:58;5.03;;;4.63;;
5117;SDS011;2578;51.622;7.046;2023-01-16T01:29:24;5.27;;;4.87;;
5117;SDS011;2578;51.622;7.046;2023-01-16T01:31:50;4.90;;;4.50;;
5117;SDS011;2578;51.622;7.046;2023-01-16T01:34:15;5.23;;;4.73;;
5117;SDS011;2578;51.622;7.046;2023-01-16T01:36:41;4.70;;;4.30;;
5117;SDS011;2578;51.622;7.046;2023-01-16T01:39:06;4.80;;;4.40;;
5117;SDS011;2578;51.622;7.046;2023-01-16T01:41:32;4.67;;;4.27;;
5117;SDS011;2578;51.622;7.046;2023-01-16T01:43:58;4.60;;;4.20;;
5117;SDS011;2578;51.622;7.046;2023-01-16T01:49:05;4.70;;;4.30;;
5117;SDS011;2578;51.622;7.046;2023-01-16T01:51:40;4.73;;;4.33;;
5117;SDS011;2578;51.622;7.046;2023-01-16T01:54:09;4.50;;;4.10;;
5117;SDS011;2578;51.622;7.046;2023-01-16T01:56:48;4.50;;;4.10;;
5117;SDS011;2578;51.622;7.046;2023-01-16T01:59:16;4.50;;;4.10;;
5117;SDS011;2578;51.622;7.046;2023-01-16T02:01:45;4.10;;;3.70;;
5117;SDS011;2578;51.622;7.046;2023-01-16T02:04:22;4.60;;;4.20;;
5117;SDS011;2578;51.622;7.046;2023-01-16T02:06:56;5.60;;;4.10;;
5117;SDS011;2578;51.622;7.046;2023-01-16T02:09:26;3.80;;;3.50;;
5117;SDS011;2578;51.622;7.046;2023-01-16T02:12:02;4.10;;;3.70;;
5117;SDS011;2578;51.622;7.046;2023-01-16T02:14:33;4.83;;;4.43;;
5117;SDS011;2578;51.622;7.046;2023-01-16T02:17:06;4.10;;;3.70;;
5117;SDS011;2578;51.622;7.046;2023-01-16T02:34:11;3.70;;;3.30;;
5117;SDS011;2578;51.622;7.046;2023-01-16T02:39:43;3.80;;;3.40;;
5117;SDS011;2578;51.622;7.046;2023-01-16T02:45:02;3.40;;;3.10;;
5117;SDS011;2578;51.622;7.046;2023-01-16T02:52:59;3.40;;;2.90;;
5117;SDS011;2578;51.622;7.046;2023-01-16T02:55:40;7.20;;;4.17;;
5117;SDS011;2578;51.622;7.046;2023-01-16T02:58:12;3.30;;;2.80;;
5117;SDS011;2578;51.622;7.046;2023-01-16T03:00:48;3.30;;;2.70;;
5117;SDS011;2578;51.622;7.046;2023-01-16T03:03:19;3.50;;;2.90;;
5117;SDS011;2578;51.622;7.046;2023-01-16T03:11:36;3.20;;;2.70;;
5117;SDS011;2578;51.622;7.046;2023-01-16T03:14:17;3.37;;;2.90;;
5117;SDS011;2578;51.622;7.046;2023-01-16T03:16:53;3.30;;;2.80;;
5117;SDS011;2578;51.622;7.046;2023-01-16T03:25:13;3.30;;;2.70;;
5117;SDS011;2578;51.622;7.046;2023-01-16T03:33:16;3.40;;;2.80;;
5117;SDS011;2578;51.622;7.046;2023-01-16T03:35:59;3.40;;;3.10;;
5117;SDS011;2578;51.622;7.046;2023-01-16T03:38:31;3.40;;;3.00;;
5117;SDS011;2578;51.622;7.046;2023-01-16T03:40:59;5.10;;;3.57;;
5117;SDS011;2578;51.622;7.046;2023-01-16T03:43:30;4.80;;;3.30;;
5117;SDS011;2578;51.622;7.046;2023-01-16T03:46:11;3.70;;;3.40;;
5117;SDS011;2578;51.622;7.046;2023-01-16T03:48:46;3.50;;;3.20;;
5117;SDS011;2578;51.622;7.046;2023-01-16T03:51:23;3.70;;;3.10;;
5117;SDS011;2578;51.622;7.046;2023-01-16T03:53:54;3.87;;;3.47;;
5117;SDS011;2578;51.622;7.046;2023-01-16T03:56:29;3.50;;;3.20;;
5117;SDS011;2578;51.622;7.046;2023-01-16T03:59:02;3.40;;;3.10;;
5117;SDS011;2578;51.622;7.046;2023-01-16T04:04:10;3.30;;;2.83;;
5117;SDS011;2578;51.622;7.046;2023-01-16T04:12:09;3.40;;;3.00;;
5117;SDS011;2578;51.622;7.046;2023-01-16T04:14:39;3.30;;;2.70;;
5117;SDS011;2578;51.622;7.046;2023-01-16T04:17:07;3.30;;;2.53;;
5117;SDS011;2578;51.622;7.046;2023-01-16T04:19:34;3.30;;;2.60;;
5117;SDS011;2578;51.622;7.046;2023-01-16T04:22:04;3.20;;;2.50;;
5117;SDS011;2578;51.622;7.046;2023-01-16T04:24:33;3.20;;;2.53;;
5117;SDS011;2578;51.622;7.046;2023-01-16T04:27:00;3.20;;;2.50;;
5117;SDS011;2578;51.622;7.046;2023-01-16T04:29:26;3.27;;;2.70;;
5117;SDS011;2578;51.622;7.046;2023-01-16T04:31:51;3.17;;;2.50;;
5117;SDS011;2578;51.622;7.046;2023-01-16T04:34:17;3.23;;;2.60;;
5117;SDS011;2578;51.622;7.046;2023-01-16T04:36:43;3.30;;;2.67;;
5117;SDS011;2578;51.622;7.046;2023-01-16T04:39:08;3.73;;;3.20;;
5117;SDS011;2578;51.622;7.046;2023-01-16T04:41:34;3.20;;;2.50;;
5117;SDS011;2578;51.622;7.046;2023-01-16T04:44:03;3.23;;;2.60;;
5117;SDS011;2578;51.622;7.046;2023-01-16T04:46:30;4.03;;;3.00;;
5117;SDS011;2578;51.622;7.046;2023-01-16T04:48:56;3.20;;;2.60;;
5117;SDS011;2578;51.622;7.046;2023-01-16T04:51:22;3.30;;;2.60;;
5117;SDS011;2578;51.622;7.046;2023-01-16T04:53:48;3.50;;;2.80;;
5117;SDS011;2578;51.622;7.046;2023-01-16T04:56:13;3.30;;;2.60;;
5117;SDS011;2578;51.622;7.046;2023-01-16T04:58:39;3.40;;;2.80;;
5117;SDS011;2578;51.622;7.046;2023-01-16T05:01:04;3.40;;;2.80;;
5117;SDS011;2578;51.622;7.046;2023-01-16T05:03:30;3.30;;;2.77;;
5117;SDS011;2578;51.622;7.046;2023-01-16T05:05:55;3.40;;;3.00;;
5117;SDS011;2578;51.622;7.046;2023-01-16T05:08:21;3.30;;;2.80;;
5117;SDS011;2578;51.622;7.046;2023-01-16T05:10:50;3.37;;;2.90;;
5117;SDS011;2578;51.622;7.046;2023-01-16T05:13:16;3.40;;;3.00;;
5117;SDS011;2578;51.622;7.046;2023-01-16T05:15:42;3.50;;;3.20;;
5117;SDS011;2578;51.622;7.046;2023-01-16T05:18:09;3.40;;;2.97;;
5117;SDS011;2578;51.622;7.046;2023-01-16T05:20:36;3.30;;;2.80;;
5117;SDS011;2578;51.622;7.046;2023-01-16T05:23:02;3.77;;;3.37;;
5117;SDS011;2578;51.622;7.046;2023-01-16T05:25:28;3.80;;;3.40;;
5117;SDS011;2578;51.622;7.046;2023-01-16T05:27:54;3.40;;;2.90;;
5117;SDS011;2578;51.622;7.046;2023-01-16T05:30:19;4.07;;;3.30;;
5117;SDS011;2578;51.622;7.046;2023-01-16T05:32:45;3.40;;;3.03;;
5117;SDS011;2578;51.622;7.046;2023-01-16T05:35:11;3.40;;;3.00;;
5117;SDS011;2578;51.622;7.046;2023-01-16T05:37:37;3.47;;;3.10;;
5117;SDS011;2578;51.622;7.046;2023-01-16T05:40:03;9.93;;;5.67;;
5117;SDS011;2578;51.622;7.046;2023-01-16T05:42:28;3.70;;;3.17;;
5117;SDS011;2578;51.622;7.046;2023-01-16T05:44:54;3.50;;;3.20;;
5117;SDS011;2578;51.622;7.046;2023-01-16T05:47:20;4.73;;;3.67;;
5117;SDS011;2578;51.622;7.046;2023-01-16T05:49:46;3.40;;;2.90;;
5117;SDS011;2578;51.622;7.046;2023-01-16T05:52:12;3.40;;;3.00;;
5117;SDS011;2578;51.622;7.046;2023-01-16T05:54:38;3.37;;;2.90;;
5117;SDS011;2578;51.622;7.046;2023-01-16T05:57:04;3.33;;;2.80;;
5117;SDS011;2578;51.622;7.046;2023-01-16T05:59:30;3.60;;;3.20;;
5117;SDS011;2578;51.622;7.046;2023-01-16T06:01:55;4.00;;;3.30;;
5117;SDS011;2578;51.622;7.046;2023-01-16T06:04:22;4.00;;;3.53;;
5117;SDS011;2578;51.622;7.046;2023-01-16T06:06:48;3.40;;;3.10;;
5117;SDS011;2578;51.622;7.046;2023-01-16T06:09:13;3.40;;;3.00;;
5117;SDS011;2578;51.622;7.046;2023-01-16T06:11:39;3.60;;;3.00;;
5117;SDS011;2578;51.622;7.046;2023-01-16T06:14:04;3.30;;;2.90;;
5117;SDS011;2578;51.622;7.046;2023-01-16T06:16:30;3.40;;;2.90;;
5117;SDS011;2578;51.622;7.046;2023-01-16T06:18:57;3.90;;;2.90;;
5117;SDS011;2578;51.622;7.046;2023-01-16T06:21:22;3.20;;;2.70;;
5117;SDS011;2578;51.622;7.046;2023-01-16T06:23:48;3.30;;;2.80;;
5117;SDS011;2578;51.622;7.046;2023-01-16T06:26:14;3.30;;;2.63;;
5117;SDS011;2578;51.622;7.046;2023-01-16T06:28:39;3.30;;;2.67;;
5117;SDS011;2578;51.622;7.046;2023-01-16T06:31:05;5.73;;;2.70;;
5117;SDS011;2578;51.622;7.046;2023-01-16T06:33:32;3.23;;;2.77;;
5117;SDS011;2578;51.622;7.046;2023-01-16T06:35:58;3.70;;;3.03;;
5117;SDS011;2578;51.622;7.046;2023-01-16T06:38:24;5.93;;;3.47;;
5117;SDS011;2578;51.622;7.046;2023-01-16T06:40:50;3.20;;;2.60;;
5117;SDS011;2578;51.622;7.046;2023-01-16T06:43:21;3.30;;;2.70;;
5117;SDS011;2578;51.622;7.046;2023-01-16T06:45:50;3.40;;;3.00;;
5117;SDS011;2578;51.622;7.046;2023-01-16T06:48:16;4.40;;;3.10;;
5117;SDS011;2578;51.622;7.046;2023-01-16T06:50:42;3.30;;;2.70;;
5117;SDS011;2578;51.622;7.046;2023-01-16T06:53:08;3.30;;;2.80;;
5117;SDS011;2578;51.622;7.046;2023-01-16T06:55:33;3.40;;;2.87;;
5117;SDS011;2578;51.622;7.046;2023-01-16T06:57:59;3.70;;;3.03;;
5117;SDS011;2578;51.622;7.046;2023-01-16T07:00:24;3.53;;;3.20;;
5117;SDS011;2578;51.622;7.046;2023-01-16T07:02:51;3.33;;;3.03;;
5117;SDS011;2578;51.622;7.046;2023-01-16T07:05:20;4.00;;;3.10;;
5117;SDS011;2578;51.622;7.046;2023-01-16T07:07:46;4.00;;;3.60;;
5117;SDS011;2578;51.622;7.046;2023-01-16T07:10:13;3.90;;;3.50;;
5117;SDS011;2578;51.622;7.046;2023-01-16T07:12:39;3.80;;;3.40;;
5117;SDS011;2578;51.622;7.046;2023-01-16T07:15:05;7.20;;;5.10;;
5117;SDS011;2578;51.622;7.046;2023-01-16T07:17:50;4.13;;;3.57;;
5117;SDS011;2578;51.622;7.046;2023-01-16T07:20:34;4.37;;;3.50;;
5117;SDS011;2578;51.622;7.046;2023-01-16T07:23:20;3.90;;;3.40;;
5117;SDS011;2578;51.622;7.046;2023-01-16T07:25:49;3.97;;;3.57;;
5117;SDS011;2578;51.622;7.046;2023-01-16T07:28:18;4.00;;;3.60;;
5117;SDS011;2578;51.622;7.046;2023-01-16T07:30:44;3.80;;;3.47;;
5117;SDS011;2578;51.622;7.046;2023-01-16T07:33:11;4.70;;;4.30;;
5117;SDS011;2578;51.622;7.046;2023-01-16T07:35:37;4.90;;;4.50;;
5117;SDS011;2578;51.622;7.046;2023-01-16T07:38:03;5.00;;;4.60;;
5117;SDS011;2578;51.622;7.046;2023-01-16T07:40:29;5.10;;;4.70;;
5117;SDS011;2578;51.622;7.046;2023-01-16T07:42:55;4.80;;;4.40;;
5117;SDS011;2578;51.622;7.046;2023-01-16T07:45:20;4.37;;;3.97;;
5117;SDS011;2578;51.622;7.046;2023-01-16T07:47:46;4.30;;;3.90;;
5117;SDS011;2578;51.622;7.046;2023-01-16T07:50:12;15.13;;;4.63;;
5117;SDS011;2578;51.622;7.046;2023-01-16T07:52:37;4.97;;;4.57;;
5117;SDS011;2578;51.622;7.046;2023-01-16T07:55:03;4.87;;;4.37;;
5117;SDS011;2578;51.622;7.046;2023-01-16T07:57:29;4.80;;;4.40;;
5117;SDS011;2578;51.622;7.046;2023-01-16T07:59:55;5.07;;;4.67;;
5117;SDS011;2578;51.622;7.046;2023-01-16T08:02:21;5.00;;;4.60;;
5117;SDS011;2578;51.622;7.046;2023-01-16T08:04:47;5.80;;;5.40;;
5117;SDS011;2578;51.622;7.046;2023-01-16T08:07:12;5.20;;;4.80;;
5117;SDS011;2578;51.622;7.046;2023-01-16T08:09:38;5.43;;;5.03;;
5117;SDS011;2578;51.622;7.046;2023-01-16T08:12:04;5.50;;;5.10;;
5117;SDS011;2578;51.622;7.046;2023-01-16T08:14:29;5.47;;;5.07;;
5117;SDS011;2578;51.622;7.046;2023-01-16T08:16:55;6.00;;;5.50;;
5117;SDS011;2578;51.622;7.046;2023-01-16T08:19:21;6.10;;;5.70;;
5117;SDS011;2578;51.622;7.046;2023-01-16T08:21:47;7.57;;;6.97;;
5117;SDS011;2578;51.622;7.046;2023-01-16T08:24:12;7.30;;;6.80;;
5117;SDS011;2578;51.622;7.046;2023-01-16T08:26:40;8.40;;;7.70;;
5117;SDS011;2578;51.622;7.046;2023-01-16T08:29:06;8.80;;;8.20;;
5117;SDS011;2578;51.622;7.046;2023-01-16T08:31:33;7.10;;;6.57;;
5117;SDS011;2578;51.622;7.046;2023-01-16T08:33:59;7.33;;;6.83;;
5117;SDS011;2578;51.622;7.046;2023-01-16T08:36:24;8.60;;;8.07;;
5117;SDS011;2578;51.622;7.046;2023-01-16T08:38:50;8.50;;;7.93;;
5117;SDS011;2578;51.622;7.046;2023-01-16T08:41:16;7.97;;;7.47;;
5117;SDS011;2578;51.622;7.046;2023-01-16T08:44:01;7.90;;;7.40;;
5117;SDS011;2578;51.622;7.046;2023-01-16T08:46:52;7.87;;;7.30;;
5117;SDS011;2578;51.622;7.046;2023-01-16T08:49:42;8.00;;;7.50;;
5117;SDS011;2578;51.622;7.046;2023-01-16T08:52:27;7.60;;;7.10;;
5117;SDS011;2578;51.622;7.046;2023-01-16T08:54:55;7.90;;;7.40;;
5117;SDS011;2578;51.622;7.046;2023-01-16T08:57:22;7.57;;;7.07;;
5117;SDS011;2578;51.622;7.046;2023-01-16T08:59:48;8.03;;;7.53;;
5117;SDS011;2578;51.622;7.046;2023-01-16T09:02:14;7.90;;;7.37;;
5117;SDS011;2578;51.622;7.046;2023-01-16T09:04:40;10.87;;;9.97;;
5117;SDS011;2578;51.622;7.046;2023-01-16T09:07:06;7.47;;;6.97;;
5117;SDS011;2578;51.622;7.046;2023-01-16T09:09:31;7.97;;;7.47;;
5117;SDS011;2578;51.622;7.046;2023-01-16T09:11:57;8.40;;;7.80;;
5117;SDS011;2578;51.622;7.046;2023-01-16T09:14:41;7.70;;;7.20;;
5117;SDS011;2578;51.622;7.046;2023-01-16T09:17:07;8.00;;;7.40;;
5117;SDS011;2578;51.622;7.046;2023-01-16T09:19:33;7.60;;;7.10;;
5117;SDS011;2578;51.622;7.046;2023-01-16T09:22:00;7.50;;;7.00;;
5117;SDS011;2578;51.622;7.046;2023-01-16T09:24:26;7.60;;;7.10;;
5117;SDS011;2578;51.622;7.046;2023-01-16T09:26:51;7.40;;;6.90;;
5117;SDS011;2578;51.622;7.046;2023-01-16T09:29:17;7.50;;;7.00;;
5117;SDS011;2578;51.622;7.046;2023-01-16T09:31:43;6.80;;;6.23;;
5117;SDS011;2578;51.622;7.046;2023-01-16T09:34:08;7.07;;;6.57;;
5117;SDS011;2578;51.622;7.046;2023-01-16T09:36:34;7.50;;;7.00;;
5117;SDS011;2578;51.622;7.046;2023-01-16T09:38:59;7.70;;;7.07;;
5117;SDS011;2578;51.622;7.046;2023-01-16T09:41:25;6.60;;;6.10;;
5117;SDS011;2578;51.622;7.046;2023-01-16T09:44:19;7.60;;;7.10;;
5117;SDS011;2578;51.622;7.046;2023-01-16T09:46:47;7.90;;;7.40;;
5117;SDS011;2578;51.622;7.046;2023-01-16T09:49:19;9.20;;;7.50;;
5117;SDS011;2578;51.622;7.046;2023-01-16T09:52:11;7.07;;;6.57;;
5117;SDS011;2578;51.622;7.046;2023-01-16T09:55:01;7.30;;;6.80;;
5117;SDS011;2578;51.622;7.046;2023-01-16T09:57:54;7.40;;;6.80;;
5117;SDS011;2578;51.622;7.046;2023-01-16T10:00:39;7.80;;;5.90;;
5117;SDS011;2578;51.622;7.046;2023-01-16T10:03:04;6.50;;;5.90;;
5117;SDS011;2578;51.622;7.046;2023-01-16T10:05:33;6.47;;;5.97;;
5117;SDS011;2578;51.622;7.046;2023-01-16T10:08:16;6.33;;;5.83;;
5117;SDS011;2578;51.622;7.046;2023-01-16T10:10:49;6.10;;;5.70;;
5117;SDS011;2578;51.622;7.046;2023-01-16T10:18:37;7.10;;;6.60;;
5117;SDS011;2578;51.622;7.046;2023-01-16T10:24:02;6.50;;;6.10;;
5117;SDS011;2578;51.622;7.046;2023-01-16T10:26:53;6.40;;;6.00;;
5117;SDS011;2578;51.622;7.046;2023-01-16T10:29:27;6.40;;;5.90;;
5117;SDS011;2578;51.622;7.046;2023-01-16T10:32:23;6.70;;;6.20;;
5117;SDS011;2578;51.622;7.046;2023-01-16T10:35:22;6.20;;;5.80;;
5117;SDS011;2578;51.622;7.046;2023-01-16T10:37:51;7.90;;;7.20;;
5117;SDS011;2578;51.622;7.046;2023-01-16T10:42:46;5.80;;;5.40;;
5117;SDS011;2578;51.622;7.046;2023-01-16T10:45:38;6.20;;;5.70;;
5117;SDS011;2578;51.622;7.046;2023-01-16T10:48:22;6.60;;;6.10;;
5117;SDS011;2578;51.622;7.046;2023-01-16T10:51:09;7.00;;;6.50;;
5117;SDS011;2578;51.622;7.046;2023-01-16T10:53:35;6.80;;;6.30;;
5117;SDS011;2578;51.622;7.046;2023-01-16T10:56:02;15.00;;;9.03;;
5117;SDS011;2578;51.622;7.046;2023-01-16T10:58:29;6.70;;;6.20;;
5117;SDS011;2578;51.622;7.046;2023-01-16T11:01:02;5.80;;;5.40;;
5117;SDS011;2578;51.622;7.046;2023-01-16T11:03:47;6.30;;;5.87;;
5117;SDS011;2578;51.622;7.046;2023-01-16T11:06:24;6.40;;;5.90;;
5117;SDS011;2578;51.622;7.046;2023-01-16T11:08:53;6.00;;;5.60;;
5117;SDS011;2578;51.622;7.046;2023-01-16T11:11:19;6.73;;;6.23;;
5117;SDS011;2578;51.622;7.046;2023-01-16T11:14:05;6.70;;;6.20;;
5117;SDS011;2578;51.622;7.046;2023-01-16T11:20:14;5.90;;;5.50;;
5117;SDS011;2578;51.622;7.046;2023-01-16T11:25:43;6.60;;;6.10;;
5117;SDS011;2578;51.622;7.046;2023-01-16T11:28:12;6.20;;;5.73;;
5117;SDS011;2578;51.622;7.046;2023-01-16T11:30:43;6.90;;;6.40;;
5117;SDS011;2578;51.622;7.046;2023-01-16T11:33:15;5.93;;;5.47;;
5117;SDS011;2578;51.622;7.046;2023-01-16T11:35:58;6.30;;;5.80;;
5117;SDS011;2578;51.622;7.046;2023-01-16T11:38:26;6.70;;;6.20;;
5117;SDS011;2578;51.622;7.046;2023-01-16T11:40:58;7.27;;;6.77;;
5117;SDS011;2578;51.622;7.046;2023-01-16T11:43:25;7.20;;;6.70;;
5117;SDS011;2578;51.622;7.046;2023-01-16T11:49:03;8.30;;;7.80;;
5117;SDS011;2578;51.622;7.046;2023-01-16T11:51:38;9.30;;;8.70;;
5117;SDS011;2578;51.622;7.046;2023-01-16T11:54:05;8.30;;;7.80;;
5117;SDS011;2578;51.622;7.046;2023-01-16T11:56:56;8.70;;;8.10;;
5117;SDS011;2578;51.622;7.046;2023-01-16T12:08:18;8.00;;;7.40;;
5117;SDS011;2578;51.622;7.046;2023-01-16T12:10:57;7.13;;;6.63;;
5117;SDS011;2578;51.622;7.046;2023-01-16T12:13:49;7.50;;;7.00;;
5117;SDS011;2578;51.622;7.046;2023-01-16T12:17:08;7.63;;;7.13;;
5117;SDS011;2578;51.622;7.046;2023-01-16T12:39:02;12.67;;;6.40;;
5117;SDS011;2578;51.622;7.046;2023-01-16T12:42:20;5.63;;;5.23;;
5117;SDS011;2578;51.622;7.046;2023-01-16T12:55:35;6.70;;;6.20;;
5117;SDS011;2578;51.622;7.046;2023-01-16T12:58:18;7.00;;;6.50;;
5117;SDS011;2578;51.622;7.046;2023-01-16T13:00:55;6.97;;;6.47;;
5117;SDS011;2578;51.622;7.046;2023-01-16T13:03:54;6.60;;;6.10;;
5117;SDS011;2578;51.622;7.046;2023-01-16T13:06:55;7.33;;;6.63;;
5117;SDS011;2578;51.622;7.046;2023-01-16T13:09:26;6.40;;;5.90;;
5117;SDS011;2578;51.622;7.046;2023-01-16T13:12:01;5.93;;;5.50;;
5117;SDS011;2578;51.622;7.046;2023-01-16T13:14:47;6.10;;;5.60;;
5117;SDS011;2578;51.622;7.046;2023-01-16T13:17:21;5.70;;;5.30;;
5117;SDS011;2578;51.622;7.046;2023-01-16T13:19:51;5.50;;;5.10;;
5117;SDS011;2578;51.622;7.046;2023-01-16T13:22:25;4.73;;;4.33;;
5117;SDS011;2578;51.622;7.046;2023-01-16T13:27:31;4.10;;;3.70;;
5117;SDS011;2578;51.622;7.046;2023-01-16T13:30:13;4.40;;;4.00;;
5117;SDS011;2578;51.622;7.046;2023-01-16T13:35:14;4.40;;;4.00;;
5117;SDS011;2578;51.622;7.046;2023-01-16T13:43:20;4.10;;;3.73;;
5117;SDS011;2578;51.622;7.046;2023-01-16T13:46:15;4.50;;;4.10;;
5117;SDS011;2578;51.622;7.046;2023-01-16T13:48:41;4.60;;;4.20;;
5117;SDS011;2578;51.622;7.046;2023-01-16T13:51:13;4.37;;;3.97;;
5117;SDS011;2578;51.622;7.046;2023-01-16T13:53:41;4.60;;;4.20;;
5117;SDS011;2578;51.622;7.046;2023-01-16T13:56:16;4.40;;;4.00;;
5117;SDS011;2578;51.622;7.046;2023-01-16T13:58:47;4.53;;;4.03;;
5117;SDS011;2578;51.622;7.046;2023-01-16T14:01:29;4.40;;;4.00;;
5117;SDS011;2578;51.622;7.046;2023-01-16T14:04:24;5.20;;;4.80;;
5117;SDS011;2578;51.622;7.046;2023-01-16T14:06:51;4.70;;;4.30;;
5117;SDS011;2578;51.622;7.046;2023-01-16T14:13:00;4.87;;;4.47;;
5117;SDS011;2578;51.622;7.046;2023-01-16T14:15:47;3.80;;;3.50;;
5117;SDS011;2578;51.622;7.046;2023-01-16T14:18:37;4.73;;;3.50;;
5117;SDS011;2578;51.622;7.046;2023-01-16T14:21:17;3.40;;;3.10;;
5117;SDS011;2578;51.622;7.046;2023-01-16T14:23:47;4.13;;;3.47;;
